createdAt,value
2022-11-07T00:01:21.112Z,13.77
2022-11-07T00:03:48.701Z,12.57
2022-11-07T00:06:18.457Z,13.00
2022-11-07T00:08:45.902Z,14.73
2022-11-07T00:11:12.972Z,12.80
2022-11-07T00:13:40.017Z,13.38
2022-11-07T00:16:09.904Z,13.15
2022-11-07T00:18:37.395Z,14.02
2022-11-07T00:21:06.288Z,15.40
2022-11-07T00:23:33.439Z,14.77
2022-11-07T00:26:05.144Z,16.00
2022-11-07T00:28:42.720Z,13.02
2022-11-07T00:31:11.670Z,15.05
2022-11-07T00:33:38.793Z,14.40
2022-11-07T00:36:06.348Z,15.48
2022-11-07T00:38:33.359Z,14.50
2022-11-07T00:41:02.555Z,16.73
2022-11-07T00:43:30.497Z,13.82
2022-11-07T00:45:58.172Z,16.05
2022-11-07T00:48:25.235Z,14.00
2022-11-07T00:50:52.244Z,15.50
2022-11-07T00:53:19.293Z,14.40
2022-11-07T00:55:46.649Z,14.75
2022-11-07T00:58:14.598Z,14.23
2022-11-07T01:00:42.394Z,12.70
2022-11-07T01:03:27.924Z,14.55
2022-11-07T01:06:03.149Z,14.23
2022-11-07T01:08:30.781Z,13.05
2022-11-07T01:10:59.049Z,13.70
2022-11-07T01:13:26.872Z,13.82
2022-11-07T01:15:54.172Z,14.68
2022-11-07T01:18:21.248Z,13.82
2022-11-07T01:20:49.907Z,14.15
2022-11-07T01:23:18.287Z,12.40
2022-11-07T01:25:45.922Z,13.70
2022-11-07T01:28:12.922Z,15.32
2022-11-07T01:30:44.557Z,15.57
2022-11-07T01:33:12.737Z,15.15
2022-11-07T01:35:40.849Z,14.73
2022-11-07T01:38:08.605Z,14.93
2022-11-07T01:41:01.580Z,14.73
2022-11-07T01:43:46.722Z,15.35
2022-11-07T01:46:14.465Z,15.55
2022-11-07T01:48:44.971Z,15.35
2022-11-07T01:51:13.247Z,13.52
2022-11-07T01:53:41.649Z,14.52
2022-11-07T01:56:14.523Z,14.65
2022-11-07T01:58:43.369Z,14.90
2022-11-07T02:01:10.966Z,14.52
2022-11-07T02:03:38.746Z,15.57
2022-11-07T02:06:11.029Z,14.25
2022-11-07T02:08:40.255Z,15.70
2022-11-07T02:11:07.645Z,16.15
2022-11-07T02:13:34.669Z,15.10
2022-11-07T02:16:05.681Z,17.55
2022-11-07T02:18:36.429Z,17.83
2022-11-07T02:21:18.734Z,14.95
2022-11-07T02:24:01.515Z,15.75
2022-11-07T02:26:29.320Z,14.63
2022-11-07T02:28:57.604Z,15.05
2022-11-07T02:31:24.896Z,16.27
2022-11-07T02:33:52.089Z,16.00
2022-11-07T02:36:23.622Z,16.08
2022-11-07T02:38:57.664Z,16.23
2022-11-07T02:41:33.607Z,17.13
2022-11-07T02:44:09.057Z,15.35
2022-11-07T02:46:36.878Z,15.05
2022-11-07T02:49:04.166Z,15.85
2022-11-07T02:51:31.209Z,14.98
2022-11-07T02:53:58.576Z,15.13
2022-11-07T02:56:25.903Z,16.20
2022-11-07T02:58:52.986Z,16.13
2022-11-07T03:01:20.536Z,16.48
2022-11-07T03:03:49.502Z,17.38
2022-11-07T03:06:19.987Z,16.98
2022-11-07T03:08:47.317Z,15.02
2022-11-07T03:11:14.699Z,16.48
2022-11-07T03:13:41.668Z,16.88
2022-11-07T03:16:11.258Z,17.33
2022-11-07T03:18:38.538Z,16.95
2022-11-07T03:21:06.333Z,16.90
2022-11-07T03:23:34.997Z,16.33
2022-11-07T03:26:02.586Z,16.70
2022-11-07T03:28:29.675Z,17.75
2022-11-07T03:31:00.975Z,17.35
2022-11-07T03:35:55.650Z,14.80
2022-11-07T03:38:22.758Z,15.95
2022-11-07T03:40:49.926Z,13.70
2022-11-07T03:43:17.289Z,13.98
2022-11-07T03:45:44.567Z,14.57
2022-11-07T03:48:11.638Z,14.95
2022-11-07T03:50:38.771Z,13.70
2022-11-07T03:53:05.804Z,14.88
2022-11-07T03:55:32.849Z,15.82
2022-11-07T03:57:59.847Z,17.13
2022-11-07T04:00:26.868Z,15.77
2022-11-07T04:02:54.057Z,14.68
2022-11-07T04:05:21.140Z,14.45
2022-11-07T04:07:48.214Z,15.38
2022-11-07T04:10:15.393Z,12.68
2022-11-07T04:13:00.766Z,14.82
2022-11-07T04:15:46.179Z,13.98
2022-11-07T04:18:13.640Z,14.73
2022-11-07T04:20:40.620Z,14.73
2022-11-07T04:23:07.495Z,14.70
2022-11-07T04:25:52.831Z,12.93
2022-11-07T04:28:20.012Z,13.95
2022-11-07T04:30:47.044Z,15.38
2022-11-07T04:33:14.456Z,15.48
2022-11-07T04:35:41.659Z,14.20
2022-11-07T04:38:08.695Z,13.15
2022-11-07T04:40:36.045Z,12.90
2022-11-07T04:43:09.268Z,13.02
2022-11-07T04:45:37.919Z,13.77
2022-11-07T04:48:05.842Z,13.35
2022-11-07T04:50:32.947Z,15.23
2022-11-07T04:53:00.108Z,14.48
2022-11-07T04:55:30.753Z,13.60
2022-11-07T04:57:58.176Z,14.38
2022-11-07T05:00:25.689Z,12.85
2022-11-07T05:02:53.033Z,14.38
2022-11-07T05:05:20.452Z,14.82
2022-11-07T05:07:47.869Z,13.15
2022-11-07T05:10:19.401Z,14.98
2022-11-07T05:12:46.486Z,16.20
2022-11-07T05:15:13.692Z,15.15
2022-11-07T05:17:42.232Z,16.73
2022-11-07T05:20:25.852Z,17.38
2022-11-07T05:23:11.518Z,15.20
2022-11-07T05:25:49.995Z,15.45
2022-11-07T05:28:25.688Z,15.95
2022-11-07T05:31:01.872Z,14.80
2022-11-07T05:33:29.295Z,15.75
2022-11-07T05:35:56.262Z,14.52
2022-11-07T05:38:23.327Z,15.90
2022-11-07T05:40:50.307Z,15.38
2022-11-07T05:43:17.878Z,15.68
2022-11-07T05:45:45.310Z,14.13
2022-11-07T05:48:13.770Z,17.50
2022-11-07T05:50:41.325Z,14.70
2022-11-07T05:53:08.558Z,16.70
2022-11-07T05:55:35.567Z,18.00
2022-11-07T05:58:08.792Z,16.73
2022-11-07T06:00:35.769Z,17.55
2022-11-07T06:03:05.897Z,17.08
2022-11-07T06:05:33.097Z,16.65
2022-11-07T06:08:00.196Z,17.33
2022-11-07T06:10:27.314Z,16.40
2022-11-07T06:13:02.780Z,16.52
2022-11-07T06:15:33.623Z,15.98
2022-11-07T06:18:02.103Z,16.83
2022-11-07T06:20:30.120Z,15.13
2022-11-07T06:23:04.494Z,15.32
2022-11-07T06:25:32.496Z,17.25
2022-11-07T06:28:07.850Z,17.27
2022-11-07T06:30:36.357Z,19.02
2022-11-07T06:33:05.673Z,19.40
2022-11-07T06:35:33.178Z,18.05
2022-11-07T06:38:05.238Z,20.83
2022-11-07T06:40:33.308Z,18.77
2022-11-07T06:43:12.729Z,19.40
2022-11-07T06:45:40.820Z,18.15
2022-11-07T06:48:08.935Z,17.80
2022-11-07T06:50:36.145Z,19.35
2022-11-07T06:53:05.062Z,17.80
2022-11-07T06:55:35.035Z,30.10
2022-11-07T06:58:02.905Z,23.80
2022-11-07T07:00:35.390Z,28.58
2022-11-07T07:03:02.950Z,22.75
2022-11-07T07:05:30.054Z,21.80
2022-11-07T07:07:57.413Z,18.38
2022-11-07T07:10:25.597Z,18.13
2022-11-07T07:12:54.164Z,21.10
2022-11-07T07:15:21.481Z,20.40
2022-11-07T07:17:49.376Z,20.05
2022-11-07T07:20:16.709Z,20.45
2022-11-07T07:22:50.410Z,20.70
2022-11-07T07:25:29.324Z,18.10
2022-11-07T07:27:56.781Z,21.40
2022-11-07T07:30:24.164Z,20.65
2022-11-07T07:32:51.232Z,18.88
2022-11-07T07:35:18.575Z,19.77
2022-11-07T07:37:50.202Z,20.40
2022-11-07T07:40:17.898Z,23.02
2022-11-07T07:42:45.439Z,20.75
2022-11-07T07:45:14.295Z,19.75
2022-11-07T07:47:42.167Z,18.40
2022-11-07T07:50:11.668Z,17.77
2022-11-07T07:52:39.170Z,18.58
2022-11-07T07:55:09.351Z,17.60
2022-11-07T07:57:42.473Z,17.50
2022-11-07T08:00:12.023Z,19.00
2022-11-07T08:02:40.090Z,19.48
2022-11-07T08:05:07.703Z,17.83
2022-11-07T08:07:35.082Z,18.10
2022-11-07T08:10:14.617Z,18.00
2022-11-07T08:12:49.521Z,18.42
2022-11-07T08:15:18.698Z,16.85
2022-11-07T08:17:46.711Z,20.27
2022-11-07T08:20:16.405Z,18.38
2022-11-07T08:22:43.464Z,35.38
2022-11-07T08:25:12.194Z,17.58
2022-11-07T08:27:39.467Z,16.15
2022-11-07T08:30:12.626Z,15.93
2022-11-07T08:32:42.979Z,15.45
2022-11-07T08:35:11.502Z,14.25
2022-11-07T08:37:39.065Z,16.02
2022-11-07T08:40:08.844Z,12.77
2022-11-07T08:42:36.273Z,12.52
2022-11-07T08:45:03.755Z,13.88
2022-11-07T08:47:30.962Z,15.55
2022-11-07T08:49:59.185Z,15.35
2022-11-07T08:52:28.258Z,16.83
2022-11-07T08:54:55.638Z,15.45
2022-11-07T08:57:22.845Z,14.90
2022-11-07T08:59:49.844Z,14.35
2022-11-07T09:05:05.121Z,15.00
2022-11-07T09:07:32.280Z,16.75
2022-11-07T09:09:59.267Z,13.98
2022-11-07T09:12:26.533Z,14.98
2022-11-07T09:14:53.583Z,14.10
2022-11-07T09:17:20.635Z,13.75
2022-11-07T09:19:47.588Z,13.25
2022-11-07T09:22:15.417Z,15.50
2022-11-07T09:24:42.626Z,16.98
2022-11-07T09:27:09.630Z,14.48
2022-11-07T09:29:36.774Z,14.57
2022-11-07T09:32:23.413Z,13.07
2022-11-07T09:34:58.212Z,13.18
2022-11-07T09:37:26.594Z,12.25
2022-11-07T09:39:53.789Z,13.02
2022-11-07T09:43:01.994Z,11.25
2022-11-07T09:45:32.203Z,12.80
2022-11-07T09:48:07.009Z,13.55
2022-11-07T09:50:43.410Z,12.40
2022-11-07T09:53:25.476Z,13.70
2022-11-07T09:56:07.052Z,12.52
2022-11-07T09:58:38.281Z,13.15
2022-11-07T10:01:26.747Z,11.68
2022-11-07T10:04:23.129Z,13.00
2022-11-07T10:07:06.139Z,13.90
2022-11-07T10:10:17.825Z,12.88
2022-11-07T10:13:04.368Z,12.57
2022-11-07T10:15:54.438Z,11.77
2022-11-07T10:18:38.986Z,11.27
2022-11-07T10:21:44.862Z,11.68
2022-11-07T10:25:00.022Z,11.85
2022-11-07T10:27:27.221Z,12.65
2022-11-07T10:29:56.576Z,12.60
2022-11-07T10:33:13.078Z,21.92
2022-11-07T10:35:48.229Z,11.70
2022-11-07T10:38:19.951Z,15.07
2022-11-07T10:40:47.994Z,12.40
2022-11-07T10:43:30.130Z,10.63
2022-11-07T10:45:58.351Z,12.90
2022-11-07T10:48:26.012Z,12.32
2022-11-07T10:50:54.917Z,11.63
2022-11-07T10:53:23.734Z,11.05
2022-11-07T10:55:52.264Z,12.48
2022-11-07T10:58:27.359Z,11.77
2022-11-07T11:01:09.842Z,12.73
2022-11-07T11:03:50.827Z,11.13
2022-11-07T11:06:24.022Z,13.10
2022-11-07T11:08:53.215Z,12.60
2022-11-07T11:11:32.514Z,12.23
2022-11-07T11:14:16.991Z,10.52
2022-11-07T11:16:44.347Z,10.98
2022-11-07T11:19:24.885Z,11.10
2022-11-07T11:21:58.839Z,10.45
2022-11-07T11:24:36.916Z,12.82
2022-11-07T11:27:15.661Z,10.25
2022-11-07T11:30:02.262Z,10.55
2022-11-07T11:32:38.249Z,12.18
2022-11-07T11:35:29.190Z,11.43
2022-11-07T11:40:29.050Z,10.20
2022-11-07T11:43:08.106Z,10.30
2022-11-07T11:46:11.819Z,10.35
2022-11-07T11:48:49.748Z,9.88
2022-11-07T11:51:29.054Z,11.27
2022-11-07T11:53:57.467Z,10.43
2022-11-07T11:56:34.389Z,11.65
2022-11-07T11:59:59.384Z,10.95
2022-11-07T12:03:20.272Z,10.15
2022-11-07T12:06:18.889Z,11.32
2022-11-07T12:09:28.394Z,9.95
2022-11-07T12:12:25.066Z,10.02
2022-11-07T12:15:31.912Z,9.93
2022-11-07T12:18:55.342Z,10.50
2022-11-07T12:21:50.672Z,9.35
2022-11-07T12:24:31.642Z,10.32
2022-11-07T12:30:34.169Z,10.13
2022-11-07T12:36:49.761Z,10.55
2022-11-07T12:42:05.644Z,12.95
2022-11-07T12:48:16.152Z,10.55
2022-11-07T13:02:17.595Z,10.48
2022-11-07T13:04:59.887Z,10.35
2022-11-07T13:07:39.937Z,10.55
2022-11-07T13:10:18.842Z,10.77
2022-11-07T13:13:26.072Z,9.95
2022-11-07T13:16:14.500Z,14.63
2022-11-07T13:21:14.137Z,10.95
2022-11-07T13:23:41.936Z,10.25
2022-11-07T13:26:26.382Z,9.68
2022-11-07T13:29:00.687Z,10.70
2022-11-07T13:31:39.432Z,11.48
2022-11-07T13:34:11.699Z,11.93
2022-11-07T13:36:39.644Z,11.93
2022-11-07T13:39:07.903Z,11.65
2022-11-07T13:41:35.182Z,10.02
2022-11-07T13:44:07.441Z,10.20
2022-11-07T13:46:54.118Z,10.40
2022-11-07T13:49:46.853Z,13.07
2022-11-07T13:52:27.078Z,10.68
2022-11-07T13:55:03.953Z,11.15
2022-11-07T13:58:01.332Z,11.40
2022-11-07T14:00:30.566Z,11.10
2022-11-07T14:02:59.224Z,10.27
2022-11-07T14:05:29.827Z,10.75
2022-11-07T14:08:02.448Z,12.32
2022-11-07T14:10:50.757Z,10.98
2022-11-07T14:13:51.423Z,10.98
2022-11-07T14:16:26.698Z,13.13
2022-11-07T14:19:03.869Z,11.02
2022-11-07T14:21:35.908Z,10.75
2022-11-07T14:24:20.296Z,10.63
2022-11-07T14:27:01.331Z,11.90
2022-11-07T14:29:29.873Z,12.27
2022-11-07T14:32:06.997Z,11.35
2022-11-07T14:34:44.694Z,10.48
2022-11-07T14:37:15.226Z,9.98
2022-11-07T14:42:25.983Z,11.52
2022-11-07T14:44:58.953Z,11.57
2022-11-07T14:47:30.865Z,11.23
2022-11-07T14:49:59.385Z,12.75
2022-11-07T14:52:42.177Z,9.90
2022-11-07T14:55:21.062Z,11.27
2022-11-07T14:57:48.497Z,12.90
2022-11-07T15:00:18.763Z,13.13
2022-11-07T15:02:49.423Z,12.18
2022-11-07T15:07:50.493Z,13.07
2022-11-07T15:10:35.831Z,11.23
2022-11-07T15:13:22.985Z,14.02
2022-11-07T15:16:14.264Z,12.55
2022-11-07T15:18:44.839Z,12.98
2022-11-07T15:21:32.356Z,15.38
2022-11-07T15:24:02.114Z,16.48
2022-11-07T15:26:35.024Z,14.25
2022-11-07T15:29:22.285Z,15.45
2022-11-07T15:31:49.968Z,20.35
2022-11-07T15:34:33.787Z,15.20
2022-11-07T15:37:15.707Z,15.48
2022-11-07T15:39:42.709Z,13.82
2022-11-07T15:42:09.967Z,15.40
2022-11-07T15:44:37.223Z,15.63
2022-11-07T15:47:05.698Z,15.38
2022-11-07T15:49:34.328Z,15.57
2022-11-07T15:52:01.728Z,15.90
2022-11-07T15:54:28.917Z,16.20
2022-11-07T15:57:01.561Z,16.42
2022-11-07T15:59:32.910Z,16.65
2022-11-07T16:02:01.689Z,17.27
2022-11-07T16:04:29.692Z,15.93
2022-11-07T16:06:56.674Z,15.52
2022-11-07T16:09:26.921Z,17.63
2022-11-07T16:11:53.970Z,17.83
2022-11-07T16:14:42.930Z,15.85
2022-11-07T16:17:12.819Z,18.13
2022-11-07T16:19:40.357Z,18.88
2022-11-07T16:22:13.518Z,18.10
2022-11-07T16:24:40.609Z,18.23
2022-11-07T16:27:07.831Z,16.98
2022-11-07T16:29:35.089Z,15.32
2022-11-07T16:32:02.229Z,16.80
2022-11-07T16:34:29.276Z,18.50
2022-11-07T16:36:56.253Z,16.17
2022-11-07T16:39:23.501Z,17.77
2022-11-07T16:41:50.784Z,17.73
2022-11-07T16:44:25.624Z,17.35
2022-11-07T16:46:55.555Z,15.80
2022-11-07T16:49:31.647Z,16.98
2022-11-07T16:51:59.013Z,17.67
2022-11-07T16:54:26.219Z,18.55
2022-11-07T16:56:53.587Z,18.45
2022-11-07T16:59:22.698Z,18.48
2022-11-07T17:01:51.101Z,18.05
2022-11-07T17:04:18.332Z,15.52
2022-11-07T17:06:47.784Z,16.85
2022-11-07T17:09:17.038Z,16.75
2022-11-07T17:11:44.512Z,17.38
2022-11-07T17:14:11.675Z,16.90
2022-11-07T17:16:42.569Z,15.65
2022-11-07T17:19:12.176Z,15.75
2022-11-07T17:21:44.018Z,14.77
2022-11-07T17:24:10.983Z,16.17
2022-11-07T17:26:39.089Z,16.15
2022-11-07T17:29:08.825Z,15.32
2022-11-07T17:31:36.024Z,15.10
2022-11-07T17:34:03.012Z,16.63
2022-11-07T17:36:40.610Z,17.13
2022-11-07T17:39:11.977Z,17.95
2022-11-07T17:41:43.646Z,18.13
2022-11-07T17:44:11.494Z,17.73
2022-11-07T17:46:44.579Z,18.17
2022-11-07T17:49:14.667Z,17.60
2022-11-07T17:51:42.356Z,18.65
2022-11-07T17:54:14.411Z,18.23
2022-11-07T17:56:42.253Z,17.30
2022-11-07T17:59:14.267Z,16.98
2022-11-07T18:01:41.982Z,17.73
2022-11-07T18:04:11.035Z,19.75
2022-11-07T18:06:40.177Z,17.58
2022-11-07T18:09:09.326Z,17.30
2022-11-07T18:11:36.680Z,17.13
2022-11-07T18:14:03.773Z,15.77
2022-11-07T18:16:33.902Z,16.88
2022-11-07T18:19:02.538Z,17.55
2022-11-07T18:21:30.229Z,17.90
2022-11-07T18:23:57.871Z,16.85
2022-11-07T18:26:31.175Z,15.45
2022-11-07T18:29:02.421Z,14.25
2022-11-07T18:33:58.156Z,15.05
2022-11-07T18:36:25.721Z,15.43
2022-11-07T18:38:52.763Z,16.45
2022-11-07T18:41:23.932Z,17.00
2022-11-07T18:46:19.576Z,16.42
2022-11-07T18:48:46.787Z,16.92
2022-11-07T18:51:21.955Z,16.58
2022-11-07T18:53:52.748Z,17.17
2022-11-07T18:56:20.593Z,16.83
2022-11-07T18:58:47.768Z,19.20
2022-11-07T19:01:28.502Z,16.98
2022-11-07T19:03:57.179Z,16.58
2022-11-07T19:06:25.682Z,17.50
2022-11-07T19:08:53.425Z,16.80
2022-11-07T19:11:26.784Z,18.92
2022-11-07T19:13:53.900Z,19.17
2022-11-07T19:16:24.327Z,16.75
2022-11-07T19:18:51.821Z,18.25
2022-11-07T19:21:21.250Z,18.98
2022-11-07T19:23:54.637Z,20.67
2022-11-07T19:26:21.835Z,21.02
2022-11-07T19:28:49.075Z,21.10
2022-11-07T19:31:16.827Z,20.92
2022-11-07T19:33:44.423Z,20.40
2022-11-07T19:36:17.082Z,22.65
2022-11-07T19:38:45.117Z,20.52
2022-11-07T19:41:13.632Z,20.85
2022-11-07T19:43:42.716Z,19.83
2022-11-07T19:46:16.522Z,17.95
2022-11-07T19:48:44.288Z,18.75
2022-11-07T19:51:21.558Z,17.55
2022-11-07T19:53:56.848Z,17.58
2022-11-07T19:56:25.713Z,18.48
2022-11-07T19:58:52.767Z,19.50
2022-11-07T20:01:24.999Z,19.15
2022-11-07T20:03:53.375Z,18.00
2022-11-07T20:06:23.837Z,17.77
2022-11-07T20:08:51.355Z,16.92
2022-11-07T20:11:21.671Z,17.73
2022-11-07T20:13:48.839Z,19.47
2022-11-07T20:16:16.516Z,16.77
2022-11-07T20:18:44.043Z,16.23
2022-11-07T20:21:14.307Z,19.17
2022-11-07T20:23:42.552Z,18.17
2022-11-07T20:26:12.300Z,18.40
2022-11-07T20:28:39.921Z,17.13
2022-11-07T20:31:14.025Z,16.98
2022-11-07T20:33:41.424Z,17.05
2022-11-07T20:36:13.175Z,17.75
2022-11-07T20:38:41.151Z,19.80
2022-11-07T20:41:08.482Z,20.48
2022-11-07T20:43:35.757Z,19.98
2022-11-07T20:46:11.458Z,21.70
2022-11-07T20:48:39.237Z,20.63
2022-11-07T20:51:11.046Z,21.13
2022-11-07T20:53:39.411Z,21.00
2022-11-07T20:56:07.114Z,20.98
2022-11-07T20:58:36.965Z,21.92
2022-11-07T21:01:05.072Z,20.30
2022-11-07T21:03:33.666Z,20.25
2022-11-07T21:06:01.375Z,21.08
2022-11-07T21:08:30.775Z,21.25
2022-11-07T21:11:00.134Z,20.08
2022-11-07T21:13:27.231Z,19.08
2022-11-07T21:15:54.329Z,20.60
2022-11-07T21:18:21.623Z,19.35
2022-11-07T21:20:48.788Z,20.48
2022-11-07T21:23:16.835Z,20.13
2022-11-07T21:25:48.154Z,18.75
2022-11-07T21:28:18.163Z,20.15
2022-11-07T21:30:58.080Z,20.33
2022-11-07T21:33:25.267Z,19.25
2022-11-07T21:35:52.309Z,19.42
2022-11-07T21:38:19.369Z,19.23
2022-11-07T21:40:46.651Z,18.83
2022-11-07T21:43:13.900Z,21.38
2022-11-07T21:45:41.174Z,20.02
2022-11-07T21:48:08.555Z,20.83
2022-11-07T21:50:44.532Z,20.20
2022-11-07T21:53:12.296Z,19.63
2022-11-07T21:55:39.524Z,19.73
2022-11-07T21:58:06.620Z,19.90
2022-11-07T22:00:36.764Z,19.40
2022-11-07T22:03:04.693Z,19.87
2022-11-07T22:05:31.794Z,21.50
2022-11-07T22:07:58.871Z,20.60
2022-11-07T22:10:25.982Z,19.80
2022-11-07T22:12:53.125Z,19.42
2022-11-07T22:15:20.312Z,20.35
2022-11-07T22:17:47.387Z,20.88
2022-11-07T22:20:14.554Z,18.95
2022-11-07T22:22:41.572Z,21.00
2022-11-07T22:25:08.772Z,19.75
2022-11-07T22:27:37.438Z,20.88
2022-11-07T22:30:05.505Z,20.95
2022-11-07T22:32:32.610Z,20.77
2022-11-07T22:35:00.919Z,19.92
2022-11-07T22:37:30.894Z,18.85
2022-11-07T22:39:57.882Z,20.25
2022-11-07T22:42:25.004Z,18.25
2022-11-07T22:44:52.054Z,18.63
2022-11-07T22:47:19.085Z,19.75
2022-11-07T22:49:46.162Z,20.00
2022-11-07T22:52:13.175Z,21.10
2022-11-07T22:54:40.806Z,19.70
2022-11-07T22:57:07.726Z,21.63
2022-11-07T22:59:34.732Z,19.52
2022-11-07T23:02:02.036Z,20.83
2022-11-07T23:04:32.867Z,19.73
2022-11-07T23:07:00.108Z,18.77
2022-11-07T23:09:27.270Z,21.13
2022-11-07T23:11:54.819Z,19.63
2022-11-07T23:14:25.828Z,20.15
2022-11-07T23:16:55.457Z,20.38
2022-11-07T23:19:24.730Z,18.23
2022-11-07T23:21:56.644Z,19.90
2022-11-07T23:24:24.047Z,20.77
2022-11-07T23:26:52.347Z,18.83
2022-11-07T23:29:21.539Z,19.85
2022-11-07T23:31:50.033Z,19.77
2022-11-07T23:34:18.436Z,19.98
2022-11-07T23:36:45.673Z,19.70
2022-11-07T23:39:18.733Z,19.38
2022-11-07T23:41:46.438Z,20.25
2022-11-07T23:44:14.182Z,19.67
2022-11-07T23:47:00.323Z,18.45
2022-11-07T23:49:45.743Z,19.38
2022-11-07T23:52:12.904Z,18.48
2022-11-07T23:54:58.571Z,18.70
2022-11-07T23:57:25.575Z,19.08
